Flight Track Log - Related Links

Times and Time Zones

All times are in EDT time to prevent confusion due to time zone crossing. See the ASQ4151 flight status page for this flight to view local times or setup timezone preferences in your user account.

Time Position Orientation Groundspeed Altitude Reporting Facility
EDT Latitude Longitude Course Direction KTS MPH feet Rate Location/Type
Wed 10:30:49 AM 29.9764 -95.2983 97° East 160 184 900  Level Houston Center
Wed 10:32:02 AM 29.9633 -95.2228 101° East 243 280 3,100 1,453 Climbing Houston Center
Wed 10:32:57 AM 29.9525 -95.1517 100° East 253 291 4,000 789 Climbing Houston Center
Wed 10:33:18 AM 29.9503 -95.1361 99° East 249 287 4,100 2,024 Climbing Houston Center
Wed 10:34:00 AM 29.9185 -94.8829 97° East  Level FlightAware Approximate
Wed 10:34:20 AM 29.9417 -95.0539 97° East 256 295 6,800  Level Houston Center
Wed 10:35:00 AM 29.9086 -94.7694 95° East  Level FlightAware Approximate
Wed 10:35:22 AM 29.9319 -94.9647 97° East 274 315 9,200  Level Houston Center
Wed 10:36:00 AM 29.8988 -94.6558 97° East  Level FlightAware Approximate
Wed 10:36:24 AM 29.9203 -94.8483 97° East 302 348 10,900  Level Houston Center
Wed 10:37:26 AM 29.9081 -94.7356 97° East 349 402 12,100 1,306 Climbing Houston Center
Wed 10:38:28 AM 29.8944 -94.6192 98° East 363 418 13,600 1,440 Climbing Houston Center
Wed 10:39:31 AM 29.8822 -94.5003 97° East 371 427 15,100 1,296 Climbing Houston Center
Wed 10:40:33 AM 29.8719 -94.3772 95° East 388 447 16,300 1,306 Climbing Houston Center
Wed 10:41:35 AM 29.8828 -94.2494 84° East 403 464 17,800 1,887 Climbing Houston Center
Wed 10:42:37 AM 29.8961 -94.0986 84° East 396 456 20,200 2,177 Climbing Houston Center
Wed 10:43:39 AM 29.9053 -93.9747 85° East 392 451 22,300 1,355 Climbing Houston Center
Wed 10:44:41 AM 29.9156 -93.8497 85° East 395 455 23,000 339 Climbing Houston Center
Wed 10:45:43 AM 29.9258 -93.7083 85° East 435 501 23,000  Level Houston Center
Wed 10:46:46 AM 29.9378 -93.5472 85° East 457 526 23,000  Level Houston Center
Wed 10:47:48 AM 29.9514 -93.4033 84° East 458 527 23,000  Level Houston Center
Wed 10:48:50 AM 29.9617 -93.2553 85° East 461 531 23,000  Level Houston Center
Wed 10:49:52 AM 29.9758 -93.0769 85° East 470 541 23,000  Level Houston Center
Wed 10:50:54 AM 29.9869 -92.9283 85° East 469 540 23,000  Level Houston Center
Wed 10:51:56 AM 29.9958 -92.7828 86° East 462 532 23,000  Level Houston Center
Wed 10:52:58 AM 30.0078 -92.6347 85° East 464 534 23,000  Level Houston Center
Wed 10:54:01 AM 30.0183 -92.4861 85° East 465 535 23,000  Level Houston Center
Wed 10:55:03 AM 30.0283 -92.3381 86° East 463 533 23,000  Level Houston Center
Wed 10:56:05 AM 30.0408 -92.1603 85° East 465 535 23,000  Level Houston Center
Wed 10:57:07 AM 30.0511 -92.0122 85° East 464 534 23,000  Level Houston Center
Wed 10:58:09 AM 30.0606 -91.8628 86° East 467 537 23,000  Level Houston Center
Wed 10:59:11 AM 30.0703 -91.7081 86° East 465 535 23,000 -677 Level Houston Center
Wed 11:00:13 AM 30.0800 -91.5611 86° East 461 531 21,600 -1,887 Descending Houston Center
Wed 11:01:15 AM 30.0886 -91.4194 86° East 447 514 19,100 -2,274 Descending Houston Center
Wed 11:02:17 AM 30.0964 -91.2883 86° East 422 486 16,900 -2,386 Descending Houston Center
Wed 11:02:38 AM 30.1003 -91.2269 86° East 391 450 15,800 -2,286 Descending Houston Center
Wed 11:03:20 AM 30.1069 -91.1444 85° East 382 440 14,500 -1,747 Descending Houston Center
Wed 11:03:57 AM 30.1094 -91.0800 87° East 344 396 13,500 -1,742 Descending Houston Center
Wed 11:04:22 AM 30.1067 -91.0381 94° East 345 397 12,700 -1,869 Descending Houston Center
Wed 11:04:58 AM 30.0983 -90.9675 98° East 314 361 11,600 -1,645 Descending Houston Center
Wed 11:05:24 AM 30.0950 -90.9378 97° East 320 368 11,000 -1,770 Descending Houston Center
Wed 11:05:59 AM 30.0894 -90.8742 96° East 297 342 9,800 -1,742 Descending Houston Center
Wed 11:06:26 AM 30.0872 -90.8433 95° East 303 349 9,200 -1,770 Descending Houston Center
Wed 11:07:00 AM 30.0808 -90.7806 97° East 289 333 8,000 -1,645 Descending Houston Center
Wed 11:07:28 AM 30.0781 -90.7519 96° East 293 337 7,500 -1,475 Descending Houston Center
Wed 11:08:01 AM 30.0703 -90.6922 99° East 278 320 6,500 -1,548 Descending Houston Center
Wed 11:08:30 AM 30.0675 -90.6525 95° East 274 315 5,900 -1,000 Descending Houston Center
Wed 11:08:55 AM 30.0642 -90.6250 98° East 217 250 5,600 -774 Descending Houston Center
Wed 11:09:32 AM 30.0611 -90.5886 96° East 231 266 5,100 -885 Descending Houston Center
Wed 11:09:56 AM 30.0583 -90.5653 98° East 180 207 4,700 -1,048 Descending Houston Center
Wed 11:10:35 AM 30.0564 -90.5278 93° East 205 236 4,000 -1,279 Descending Houston Center
Wed 11:10:57 AM 30.0481 -90.5031 111° Southeast 194 223 3,400 -1,065 Descending Houston Center
Wed 11:11:37 AM 30.0447 -90.4697 97° East 194 223 2,900 -787 Descending Houston Center
Wed 11:11:58 AM 30.0361 -90.4461 113° Southeast 181 208 2,600 -774 Descending Houston Center
Wed 11:12:39 AM 30.0308 -90.4178 102° East 182 209 2,100 -787 Descending Houston Center
Wed 11:12:59 AM 30.0242 -90.3936 108° East 153 176 1,800 -677 Descending Houston Center
Wed 11:13:41 AM 30.0183 -90.3736 109° East 165 190 1,400 -571 Descending Houston Center

Login

Don't have an account? Register now (free) for customized features, flight alerts, and more!